createdAt,value
2018-09-22T00:01:49.804Z,14.19
2018-09-22T00:04:19.045Z,14.45
2018-09-22T00:06:48.186Z,14.22
2018-09-22T00:09:17.593Z,14.13
2018-09-22T00:11:46.902Z,14.30
2018-09-22T00:14:16.233Z,14.42
2018-09-22T00:16:45.550Z,14.46
2018-09-22T00:19:14.781Z,14.45
2018-09-22T00:21:44.069Z,14.49
2018-09-22T00:24:13.462Z,14.41
2018-09-22T00:26:42.694Z,14.49
2018-09-22T00:29:12.121Z,14.25
2018-09-22T00:31:41.431Z,14.26
2018-09-22T00:34:11.049Z,14.27
2018-09-22T00:36:40.445Z,14.17
2018-09-22T00:39:11.021Z,14.20
2018-09-22T00:41:40.593Z,14.19
2018-09-22T00:44:09.974Z,14.18
2018-09-22T00:46:39.334Z,14.15
2018-09-22T00:49:08.810Z,14.17
2018-09-22T00:51:38.165Z,14.19
2018-09-22T00:54:06.857Z,14.04
2018-09-22T00:56:36.343Z,14.39
2018-09-22T00:59:06.034Z,14.04
2018-09-22T01:01:35.402Z,14.31
2018-09-22T01:04:04.698Z,14.20
2018-09-22T01:06:34.146Z,14.30
2018-09-22T01:09:05.383Z,14.28
2018-09-22T01:11:34.586Z,14.05
2018-09-22T01:14:03.905Z,14.22
2018-09-22T01:16:33.242Z,14.23
2018-09-22T01:19:02.733Z,14.50
2018-09-22T01:21:31.969Z,14.17
2018-09-22T01:24:01.248Z,14.35
2018-09-22T01:26:30.753Z,14.49
2018-09-22T01:29:00.166Z,13.93
2018-09-22T01:31:29.710Z,14.23
2018-09-22T01:33:59.406Z,14.47
2018-09-22T01:36:28.894Z,14.22
2018-09-22T01:38:58.378Z,13.72
2018-09-22T01:41:27.582Z,13.80
2018-09-22T01:43:56.865Z,14.13
2018-09-22T01:46:26.322Z,14.24
2018-09-22T01:48:55.694Z,13.84
2018-09-22T01:51:25.291Z,13.95
2018-09-22T01:53:54.910Z,13.36
2018-09-22T01:56:24.334Z,13.88
2018-09-22T01:58:53.660Z,13.81
2018-09-22T02:01:23.042Z,13.85
2018-09-22T02:03:52.278Z,13.80
2018-09-22T02:06:21.816Z,14.07
2018-09-22T02:08:51.101Z,13.84
2018-09-22T02:11:20.423Z,13.93
2018-09-22T02:13:49.778Z,13.88
2018-09-22T02:16:19.141Z,14.06
2018-09-22T02:18:48.414Z,14.03
2018-09-22T02:21:17.934Z,13.76
2018-09-22T02:23:47.428Z,13.77
2018-09-22T02:26:16.950Z,13.84
2018-09-22T02:28:46.526Z,13.99
2018-09-22T02:31:15.947Z,13.97
2018-09-22T02:33:45.126Z,14.05
2018-09-22T02:36:14.662Z,13.85
2018-09-22T02:38:44.263Z,13.94
2018-09-22T02:41:14.052Z,13.98
2018-09-22T02:43:43.590Z,14.03
2018-09-22T02:46:13.006Z,13.40
2018-09-22T02:48:42.395Z,13.73
2018-09-22T02:51:11.887Z,13.63
2018-09-22T02:53:41.166Z,13.64
2018-09-22T02:56:10.446Z,12.96
2018-09-22T02:58:39.843Z,13.43
2018-09-22T03:01:09.122Z,13.29
2018-09-22T03:03:38.549Z,13.24
2018-09-22T03:06:07.761Z,13.43
2018-09-22T03:08:36.984Z,13.54
2018-09-22T03:11:06.315Z,13.20
2018-09-22T03:13:35.668Z,13.36
2018-09-22T03:16:04.884Z,13.21
2018-09-22T03:18:34.386Z,13.30
2018-09-22T03:21:03.810Z,13.44
2018-09-22T03:23:33.306Z,13.59
2018-09-22T03:26:02.821Z,13.41
2018-09-22T03:28:32.027Z,13.57
2018-09-22T03:31:01.435Z,13.49
2018-09-22T03:33:30.997Z,13.31
2018-09-22T03:36:00.239Z,13.38
2018-09-22T03:38:29.498Z,13.35
2018-09-22T03:40:58.645Z,13.16
2018-09-22T03:43:27.974Z,13.44
2018-09-22T03:45:57.242Z,12.85
2018-09-22T03:48:26.466Z,13.22
2018-09-22T03:50:55.929Z,13.48
2018-09-22T03:53:25.139Z,13.65
2018-09-22T03:55:54.633Z,13.68
2018-09-22T03:58:24.431Z,13.73
2018-09-22T04:00:53.738Z,13.53
2018-09-22T04:03:23.340Z,13.55
2018-09-22T04:05:52.707Z,13.34
2018-09-22T04:08:22.141Z,13.45
2018-09-22T04:10:51.513Z,13.64
2018-09-22T04:13:20.633Z,13.61
2018-09-22T04:15:49.877Z,13.60
2018-09-22T04:18:19.111Z,13.65
2018-09-22T04:20:48.480Z,13.74
2018-09-22T04:23:17.913Z,13.30
2018-09-22T04:25:47.583Z,12.97
2018-09-22T04:28:16.984Z,13.26
2018-09-22T04:30:45.914Z,13.17
2018-09-22T04:33:14.875Z,13.22
2018-09-22T04:35:43.917Z,13.35
2018-09-22T04:38:12.905Z,13.43
2018-09-22T04:40:41.878Z,13.37
2018-09-22T04:43:10.794Z,13.45
2018-09-22T04:45:39.750Z,13.48
2018-09-22T04:48:08.665Z,13.39
2018-09-22T04:50:37.645Z,13.33
2018-09-22T04:53:06.564Z,13.47
2018-09-22T04:55:35.549Z,13.42
2018-09-22T04:58:04.504Z,13.40
2018-09-22T05:00:33.581Z,12.92
2018-09-22T05:03:02.578Z,13.09
2018-09-22T05:05:31.557Z,12.99
2018-09-22T05:08:00.498Z,13.01
2018-09-22T05:10:29.458Z,12.43
2018-09-22T05:12:58.387Z,12.95
2018-09-22T05:15:27.365Z,12.74
2018-09-22T05:17:56.301Z,12.69
2018-09-22T05:20:25.276Z,12.85
2018-09-22T05:22:54.182Z,12.84
2018-09-22T05:25:23.154Z,12.89
2018-09-22T05:27:52.142Z,12.94
2018-09-22T05:30:21.114Z,12.92
2018-09-22T05:32:50.042Z,12.84
2018-09-22T05:35:19.012Z,12.74
2018-09-22T05:37:47.954Z,12.63
2018-09-22T05:40:16.967Z,12.60
2018-09-22T05:42:46.011Z,12.71
2018-09-22T05:45:14.985Z,12.75
2018-09-22T05:47:43.901Z,12.74
2018-09-22T05:50:12.946Z,12.84
2018-09-22T05:52:41.817Z,12.87
2018-09-22T05:55:10.766Z,12.77
2018-09-22T05:57:39.674Z,12.52
2018-09-22T06:00:08.593Z,12.78
2018-09-22T06:02:37.508Z,12.73
2018-09-22T06:05:06.461Z,12.93
2018-09-22T06:07:35.415Z,12.95
2018-09-22T06:10:04.768Z,12.71
2018-09-22T06:12:33.682Z,12.86
2018-09-22T06:15:02.588Z,12.77
2018-09-22T06:17:31.514Z,12.69
2018-09-22T06:20:00.419Z,12.71
2018-09-22T06:22:29.376Z,12.75
2018-09-22T06:24:58.287Z,12.76
2018-09-22T06:27:28.177Z,12.64
2018-09-22T06:29:57.062Z,12.78
2018-09-22T06:32:26.025Z,12.94
2018-09-22T06:34:55.018Z,12.78
2018-09-22T06:37:24.040Z,12.68
2018-09-22T06:39:52.979Z,12.67
2018-09-22T06:42:21.942Z,12.84
2018-09-22T06:44:50.859Z,12.65
2018-09-22T06:47:20.001Z,12.98
2018-09-22T06:49:48.936Z,12.92
2018-09-22T06:52:17.931Z,12.89
2018-09-22T06:54:46.917Z,13.12
2018-09-22T06:57:15.873Z,13.05
2018-09-22T06:59:44.765Z,13.03
2018-09-22T07:02:13.750Z,13.04
2018-09-22T07:04:42.653Z,13.03
2018-09-22T07:07:11.614Z,13.20
2018-09-22T07:09:40.536Z,13.09
2018-09-22T07:12:09.471Z,13.48
2018-09-22T07:14:38.354Z,13.63
2018-09-22T07:17:07.366Z,13.47
2018-09-22T07:19:36.303Z,13.58
2018-09-22T07:22:10.326Z,13.43
2018-09-22T07:24:39.258Z,13.46
2018-09-22T07:27:08.217Z,13.52
2018-09-22T07:29:37.136Z,13.55
2018-09-22T07:32:06.179Z,13.42
2018-09-22T07:34:35.140Z,13.42
2018-09-22T07:37:04.133Z,13.48
2018-09-22T07:39:33.101Z,13.43
2018-09-22T07:42:02.098Z,13.57
2018-09-22T07:44:31.029Z,13.62
2018-09-22T07:47:00.431Z,13.73
2018-09-22T07:49:29.402Z,13.62
2018-09-22T07:51:58.379Z,13.72
2018-09-22T07:54:27.321Z,13.84
2018-09-22T07:56:56.285Z,14.18
2018-09-22T07:59:25.207Z,13.79
2018-09-22T08:01:54.254Z,14.00
2018-09-22T08:04:23.281Z,14.08
2018-09-22T08:06:52.254Z,14.39
2018-09-22T08:09:21.718Z,14.50
2018-09-22T08:11:50.688Z,14.34
2018-09-22T08:14:19.672Z,14.61
2018-09-22T08:16:48.725Z,14.50
2018-09-22T08:19:17.668Z,14.62
2018-09-22T08:21:46.673Z,14.82
2018-09-22T08:24:15.670Z,15.54
2018-09-22T08:26:44.737Z,15.86
2018-09-22T08:29:13.705Z,15.66
2018-09-22T08:31:42.889Z,16.30
2018-09-22T08:34:11.831Z,15.76
2018-09-22T08:36:40.939Z,16.02
2018-09-22T08:39:11.354Z,15.93
2018-09-22T08:41:40.355Z,15.78
2018-09-22T08:44:09.356Z,16.00
2018-09-22T08:46:38.428Z,16.39
2018-09-22T08:49:07.414Z,16.18
2018-09-22T08:51:36.665Z,16.58
2018-09-22T08:54:05.618Z,16.91
2018-09-22T08:56:34.558Z,17.55
2018-09-22T08:59:03.743Z,17.93
2018-09-22T09:01:32.725Z,17.52
2018-09-22T09:04:01.748Z,17.25
2018-09-22T09:06:30.864Z,17.35
2018-09-22T09:09:00.022Z,17.31
2018-09-22T09:11:29.043Z,18.08
2018-09-22T09:13:58.048Z,18.51
2018-09-22T09:16:27.060Z,18.76
2018-09-22T09:18:56.023Z,17.71
2018-09-22T09:21:24.923Z,18.13
2018-09-22T09:23:53.918Z,18.23
2018-09-22T09:26:23.096Z,18.54
2018-09-22T09:28:52.192Z,18.50
2018-09-22T09:31:21.340Z,18.11
2018-09-22T09:33:50.771Z,18.30
2018-09-22T09:36:20.054Z,18.20
2018-09-22T09:38:49.181Z,18.82
2018-09-22T09:41:18.115Z,18.48
2018-09-22T09:43:47.109Z,18.75
2018-09-22T09:46:16.053Z,19.50
2018-09-22T09:48:45.052Z,20.08
2018-09-22T09:51:14.018Z,19.48
2018-09-22T09:53:42.969Z,19.44
2018-09-22T09:56:11.854Z,19.90
2018-09-22T09:58:40.818Z,19.46
2018-09-22T10:01:09.749Z,19.86
2018-09-22T10:03:38.726Z,19.31
2018-09-22T10:06:07.678Z,20.01
2018-09-22T10:08:36.720Z,20.02
2018-09-22T10:11:05.626Z,20.59
2018-09-22T10:13:34.711Z,19.40
2018-09-22T10:16:03.627Z,19.29
2018-09-22T10:18:32.774Z,19.14
2018-09-22T10:21:02.218Z,19.34
2018-09-22T10:23:31.214Z,19.16
2018-09-22T10:26:00.113Z,19.66
2018-09-22T10:28:29.069Z,19.12
2018-09-22T10:30:58.050Z,19.52
2018-09-22T10:33:26.945Z,19.65
2018-09-22T10:35:55.937Z,19.35
2018-09-22T10:38:24.922Z,19.12
2018-09-22T10:40:53.878Z,19.33
2018-09-22T10:43:22.794Z,19.22
2018-09-22T10:45:52.082Z,19.24
2018-09-22T10:48:21.018Z,19.78
2018-09-22T10:50:49.958Z,19.96
2018-09-22T10:53:18.950Z,19.87
2018-09-22T10:55:47.983Z,19.58
2018-09-22T10:58:16.918Z,19.29
2018-09-22T11:00:45.891Z,19.71
2018-09-22T11:03:14.987Z,20.04
2018-09-22T11:05:43.967Z,20.41
2018-09-22T11:08:12.886Z,20.70
2018-09-22T11:10:41.862Z,19.95
2018-09-22T11:13:10.823Z,19.76
2018-09-22T11:15:39.770Z,19.40
2018-09-22T11:18:08.705Z,19.68
2018-09-22T11:20:37.717Z,19.88
2018-09-22T11:23:06.718Z,20.02
2018-09-22T11:25:35.693Z,19.99
2018-09-22T11:28:04.669Z,20.16
2018-09-22T11:30:33.605Z,20.34
2018-09-22T11:33:02.529Z,19.87
2018-09-22T11:35:31.477Z,19.71
2018-09-22T11:38:00.418Z,19.71
2018-09-22T11:40:29.426Z,20.61
2018-09-22T11:42:58.414Z,20.83
2018-09-22T11:45:27.401Z,20.24
2018-09-22T11:47:56.367Z,20.19
2018-09-22T11:50:25.442Z,19.61
2018-09-22T11:52:54.659Z,19.36
2018-09-22T11:55:23.630Z,19.71
2018-09-22T11:57:52.572Z,20.14
2018-09-22T12:00:21.626Z,20.13
2018-09-22T12:02:50.613Z,20.48
2018-09-22T12:05:19.562Z,20.64
2018-09-22T12:07:48.541Z,19.83
2018-09-22T12:10:17.502Z,20.09
2018-09-22T12:12:46.446Z,19.30
2018-09-22T12:15:15.419Z,19.78
2018-09-22T12:17:44.351Z,19.66
2018-09-22T12:20:13.305Z,19.53
2018-09-22T12:22:42.239Z,20.25
2018-09-22T12:25:11.196Z,20.50
2018-09-22T12:27:40.127Z,20.03
2018-09-22T12:30:09.069Z,20.21
2018-09-22T12:32:37.994Z,20.53
2018-09-22T12:35:06.955Z,20.66
2018-09-22T12:37:35.927Z,20.35
2018-09-22T12:40:05.007Z,20.24
2018-09-22T12:42:33.926Z,20.65
2018-09-22T12:45:02.890Z,19.84
2018-09-22T12:47:31.827Z,19.86
2018-09-22T12:50:00.791Z,20.35
2018-09-22T12:52:29.713Z,20.35
2018-09-22T12:54:58.689Z,19.68
2018-09-22T12:57:27.598Z,20.50
2018-09-22T12:59:56.554Z,19.91
2018-09-22T13:02:25.477Z,19.74
2018-09-22T13:04:54.431Z,20.37
2018-09-22T13:07:23.369Z,20.46
2018-09-22T13:09:52.290Z,20.13
2018-09-22T13:12:21.225Z,19.86
2018-09-22T13:14:50.169Z,19.95
2018-09-22T13:17:19.088Z,19.93
2018-09-22T13:19:48.138Z,19.97
2018-09-22T13:22:17.058Z,20.11
2018-09-22T13:24:46.142Z,20.11
2018-09-22T13:27:15.113Z,19.93
2018-09-22T13:29:44.057Z,20.02
2018-09-22T13:32:13.017Z,19.86
2018-09-22T13:34:41.926Z,19.70
2018-09-22T13:37:10.939Z,19.71
2018-09-22T13:39:39.970Z,19.78
2018-09-22T13:42:08.918Z,20.03
2018-09-22T13:44:37.829Z,20.01
2018-09-22T13:47:06.873Z,19.83
2018-09-22T13:49:35.797Z,19.56
2018-09-22T13:52:04.753Z,20.12
2018-09-22T13:54:33.650Z,19.90
2018-09-22T13:57:02.644Z,19.61
2018-09-22T13:59:31.685Z,19.65
2018-09-22T14:02:00.669Z,19.32
2018-09-22T14:04:29.599Z,19.57
2018-09-22T14:06:58.826Z,19.66
2018-09-22T14:09:27.762Z,19.82
2018-09-22T14:11:56.718Z,19.57
2018-09-22T14:14:25.737Z,19.47
2018-09-22T14:16:54.797Z,19.47
2018-09-22T14:19:23.714Z,19.55
2018-09-22T14:21:52.713Z,19.70
2018-09-22T14:24:21.781Z,19.72
2018-09-22T14:26:50.993Z,19.74
2018-09-22T14:29:20.371Z,19.47
2018-09-22T14:31:49.357Z,19.63
2018-09-22T14:34:18.302Z,19.48
2018-09-22T14:36:47.309Z,19.77
2018-09-22T14:39:16.277Z,19.93
2018-09-22T14:41:45.358Z,19.61
2018-09-22T14:44:14.316Z,19.28
2018-09-22T14:46:43.231Z,19.57
2018-09-22T14:49:12.260Z,19.70
2018-09-22T14:51:41.165Z,19.30
2018-09-22T14:54:10.226Z,19.45
2018-09-22T14:56:39.302Z,19.70
2018-09-22T14:59:08.261Z,18.95
2018-09-22T15:01:37.193Z,19.10
2018-09-22T15:04:06.159Z,18.69
2018-09-22T15:06:35.094Z,18.65
2018-09-22T15:09:05.031Z,19.30
2018-09-22T15:11:33.998Z,18.57
2018-09-22T15:14:02.954Z,18.57
2018-09-22T15:16:31.881Z,19.17
2018-09-22T15:19:00.924Z,18.81
2018-09-22T15:21:29.876Z,18.72
2018-09-22T15:23:58.894Z,18.69
2018-09-22T15:26:27.813Z,18.82
2018-09-22T15:28:56.857Z,18.93
2018-09-22T15:31:25.973Z,19.03
2018-09-22T15:33:54.953Z,18.83
2018-09-22T15:36:23.865Z,18.52
2018-09-22T15:38:52.826Z,18.51
2018-09-22T15:41:21.742Z,18.45
2018-09-22T15:43:50.770Z,18.96
2018-09-22T15:46:19.662Z,18.59
2018-09-22T15:48:48.631Z,18.71
2018-09-22T15:51:17.567Z,18.30
2018-09-22T15:53:46.506Z,18.94
2018-09-22T15:56:15.616Z,19.09
2018-09-22T15:58:44.593Z,19.01
2018-09-22T16:01:13.529Z,19.08
2018-09-22T16:03:42.489Z,18.91
2018-09-22T16:06:11.437Z,18.98
2018-09-22T16:08:40.472Z,18.88
2018-09-22T16:11:09.482Z,19.16
2018-09-22T16:13:38.435Z,19.36
2018-09-22T16:16:07.613Z,18.96
2018-09-22T16:18:36.614Z,18.36
2018-09-22T16:21:05.546Z,18.40
2018-09-22T16:23:34.516Z,18.14
2018-09-22T16:26:03.446Z,17.87
2018-09-22T16:28:32.575Z,17.75
2018-09-22T16:31:01.569Z,17.57
2018-09-22T16:33:30.542Z,17.73
2018-09-22T16:35:59.578Z,17.77
2018-09-22T16:38:28.940Z,17.84
2018-09-22T16:40:59.398Z,17.89
2018-09-22T16:43:28.456Z,17.41
2018-09-22T16:45:57.495Z,18.07
2018-09-22T16:48:26.432Z,17.69
2018-09-22T16:50:55.435Z,17.92
2018-09-22T16:53:24.432Z,17.84
2018-09-22T16:55:53.842Z,18.14
2018-09-22T16:58:22.770Z,17.72
2018-09-22T17:00:51.769Z,17.34
2018-09-22T17:03:20.708Z,17.28
2018-09-22T17:05:49.695Z,17.33
2018-09-22T17:08:18.621Z,17.56
2018-09-22T17:10:47.820Z,17.42
2018-09-22T17:13:16.779Z,17.22
2018-09-22T17:15:45.758Z,17.40
2018-09-22T17:18:14.697Z,17.47
2018-09-22T17:20:43.683Z,17.12
2018-09-22T17:23:12.659Z,16.63
2018-09-22T17:25:41.637Z,16.99
2018-09-22T17:28:10.553Z,16.99
2018-09-22T17:30:39.541Z,17.05
2018-09-22T17:33:08.461Z,16.97
2018-09-22T17:35:37.427Z,16.66
2018-09-22T17:38:06.382Z,16.71
2018-09-22T17:40:35.344Z,16.88
2018-09-22T17:43:04.295Z,16.83
2018-09-22T17:45:33.318Z,16.58
2018-09-22T17:48:02.284Z,16.59
2018-09-22T17:50:31.305Z,16.35
2018-09-22T17:53:00.261Z,16.36
2018-09-22T17:55:29.223Z,16.38
2018-09-22T17:57:58.137Z,15.99
2018-09-22T18:00:27.115Z,16.24
2018-09-22T18:02:56.054Z,16.05
2018-09-22T18:05:25.030Z,16.07
2018-09-22T18:07:54.114Z,16.03
2018-09-22T18:10:23.125Z,16.14
2018-09-22T18:12:52.041Z,16.07
2018-09-22T18:15:21.172Z,16.57
2018-09-22T18:17:50.087Z,16.24
2018-09-22T18:20:19.181Z,16.40
2018-09-22T18:22:48.114Z,16.67
2018-09-22T18:25:17.106Z,16.68
2018-09-22T18:27:46.130Z,16.50
2018-09-22T18:30:15.066Z,16.03
2018-09-22T18:32:44.126Z,15.96
2018-09-22T18:35:13.054Z,15.76
2018-09-22T18:37:42.041Z,15.48
2018-09-22T18:40:11.101Z,15.30
2018-09-22T18:42:40.125Z,15.41
2018-09-22T18:45:09.046Z,15.52
2018-09-22T18:47:38.085Z,15.65
2018-09-22T18:50:07.044Z,14.84
2018-09-22T18:52:36.048Z,14.49
2018-09-22T18:55:05.041Z,15.38
2018-09-22T18:57:36.392Z,15.76
2018-09-22T19:00:05.437Z,15.83
2018-09-22T19:02:34.452Z,16.15
2018-09-22T19:05:03.607Z,16.34
2018-09-22T19:07:32.586Z,15.93
2018-09-22T19:10:01.584Z,15.90
2018-09-22T19:12:30.677Z,15.99
2018-09-22T19:15:06.483Z,15.31
2018-09-22T19:17:40.717Z,15.68
2018-09-22T19:20:18.813Z,15.80
2018-09-22T19:22:52.047Z,16.07
2018-09-22T19:25:23.040Z,15.89
2018-09-22T19:27:55.745Z,15.99
2018-09-22T19:30:29.851Z,15.61
2018-09-22T19:33:02.157Z,16.18
2018-09-22T19:35:35.653Z,16.35
2018-09-22T19:38:12.418Z,15.92
2018-09-22T19:40:45.273Z,14.97
2018-09-22T19:43:22.029Z,14.94
2018-09-22T19:45:53.945Z,15.78
2018-09-22T19:49:02.656Z,15.57
2018-09-22T19:51:35.182Z,15.54
2018-09-22T19:54:05.035Z,15.59
2018-09-22T19:56:34.085Z,16.06
2018-09-22T19:59:03.043Z,15.81
2018-09-22T20:01:32.001Z,16.11
2018-09-22T20:04:01.038Z,16.00
2018-09-22T20:06:30.262Z,16.28
2018-09-22T20:08:59.276Z,16.27
2018-09-22T20:11:28.366Z,15.96
2018-09-22T20:13:57.587Z,15.89
2018-09-22T20:16:26.573Z,15.86
2018-09-22T20:18:55.614Z,15.63
2018-09-22T20:21:24.560Z,15.69
2018-09-22T20:23:53.568Z,15.84
2018-09-22T20:26:22.465Z,15.99
2018-09-22T20:28:51.494Z,15.96
2018-09-22T20:31:20.813Z,16.12
2018-09-22T20:33:49.779Z,16.17
2018-09-22T20:36:18.712Z,16.03
2018-09-22T20:38:47.711Z,15.74
2018-09-22T20:41:17.104Z,15.82
2018-09-22T20:43:46.151Z,15.69
2018-09-22T20:46:15.152Z,15.91
2018-09-22T20:48:44.431Z,16.01
2018-09-22T20:51:13.353Z,15.88
2018-09-22T20:53:42.370Z,15.90
2018-09-22T20:56:11.326Z,16.07
2018-09-22T20:58:40.310Z,15.66
2018-09-22T21:01:09.454Z,15.73
2018-09-22T21:03:39.519Z,14.96
2018-09-22T21:06:08.435Z,14.11
2018-09-22T21:08:37.497Z,14.30
2018-09-22T21:11:06.554Z,14.54
2018-09-22T21:13:35.535Z,14.55
2018-09-22T21:16:04.455Z,14.73
2018-09-22T21:18:33.458Z,14.93
2018-09-22T21:21:02.468Z,14.95
2018-09-22T21:23:31.436Z,14.92
2018-09-22T21:26:00.407Z,14.90
2018-09-22T21:28:29.354Z,15.09
2018-09-22T21:30:58.435Z,15.36
2018-09-22T21:33:27.491Z,15.36
2018-09-22T21:35:56.392Z,15.55
2018-09-22T21:38:25.388Z,15.76
2018-09-22T21:40:54.415Z,15.89
2018-09-22T21:43:23.430Z,15.94
2018-09-22T21:45:52.357Z,16.00
2018-09-22T21:48:21.357Z,15.00
2018-09-22T21:50:50.465Z,15.52
2018-09-22T21:53:19.421Z,15.76
2018-09-22T21:55:48.456Z,15.76
2018-09-22T21:58:17.377Z,14.89
2018-09-22T22:00:50.439Z,15.25
2018-09-22T22:03:19.669Z,15.07
2018-09-22T22:05:48.793Z,15.15
2018-09-22T22:08:18.367Z,15.39
2018-09-22T22:10:47.809Z,14.95
2018-09-22T22:13:17.744Z,14.93
2018-09-22T22:15:46.717Z,14.71
2018-09-22T22:18:15.694Z,15.31
2018-09-22T22:20:44.913Z,15.27
2018-09-22T22:23:13.858Z,15.35
2018-09-22T22:25:42.834Z,15.25
2018-09-22T22:28:11.765Z,15.01
2018-09-22T22:30:40.775Z,14.53
2018-09-22T22:33:09.707Z,14.56
2018-09-22T22:35:38.672Z,15.06
2018-09-22T22:38:07.640Z,14.95
2018-09-22T22:40:36.599Z,15.24
2018-09-22T22:43:05.542Z,15.45
2018-09-22T22:45:34.503Z,15.40
2018-09-22T22:48:03.426Z,15.15
2018-09-22T22:50:32.365Z,15.03
2018-09-22T22:53:01.354Z,14.85
2018-09-22T22:55:30.434Z,14.63
2018-09-22T22:57:59.376Z,14.58
2018-09-22T23:00:28.334Z,14.71
2018-09-22T23:02:57.226Z,14.57
2018-09-22T23:05:26.245Z,14.77
2018-09-22T23:07:55.243Z,14.70
2018-09-22T23:10:24.206Z,14.35
2018-09-22T23:12:53.135Z,14.22
2018-09-22T23:15:22.113Z,14.20
2018-09-22T23:17:51.026Z,14.33
2018-09-22T23:20:20.010Z,14.69
2018-09-22T23:22:48.925Z,14.77
2018-09-22T23:25:17.894Z,14.41
2018-09-22T23:27:46.821Z,14.30
2018-09-22T23:30:15.786Z,13.75
2018-09-22T23:32:44.715Z,13.65
2018-09-22T23:35:13.675Z,13.50
2018-09-22T23:37:42.694Z,13.50
2018-09-22T23:40:11.699Z,13.60
2018-09-22T23:42:40.613Z,14.11
2018-09-22T23:45:09.618Z,14.54
2018-09-22T23:47:38.501Z,14.51
2018-09-22T23:50:07.434Z,14.59
2018-09-22T23:52:36.348Z,14.65
2018-09-22T23:55:05.282Z,14.63
2018-09-22T23:57:34.202Z,14.63
